createdAt,value
2022-08-30T00:01:32.110Z,99200.84
2022-08-30T00:04:00.512Z,99206.16
2022-08-30T00:06:29.186Z,99206.03
2022-08-30T00:08:56.517Z,99202.06
2022-08-30T00:11:27.109Z,99205.44
2022-08-30T00:13:56.194Z,99194.06
2022-08-30T00:16:24.423Z,99191.03
2022-08-30T00:18:52.046Z,99190.09
2022-08-30T00:21:19.221Z,99194.38
2022-08-30T00:23:46.106Z,99198.50
2022-08-30T00:26:14.283Z,99197.63
2022-08-30T00:28:41.486Z,99206.38
2022-08-30T00:31:08.725Z,99207.22
2022-08-30T00:33:35.663Z,99197.56
2022-08-30T00:36:04.505Z,99192.31
2022-08-30T00:38:31.916Z,99191.25
2022-08-30T00:40:59.840Z,99192.22
2022-08-30T00:43:30.051Z,99178.16
2022-08-30T00:45:59.120Z,99179.88
2022-08-30T00:48:26.476Z,99194.06
2022-08-30T00:51:00.751Z,99177.59
2022-08-30T00:53:34.417Z,99185.38
2022-08-30T00:56:02.042Z,99183.69
2022-08-30T00:58:32.613Z,99172.66
2022-08-30T01:01:01.551Z,99183.41
2022-08-30T01:03:29.894Z,99170.44
2022-08-30T01:05:59.025Z,99167.00
2022-08-30T01:08:26.131Z,99176.97
2022-08-30T01:10:55.649Z,99179.69
2022-08-30T01:13:23.954Z,99182.22
2022-08-30T01:15:51.858Z,99168.31
2022-08-30T01:18:22.226Z,99181.47
2022-08-30T01:21:08.732Z,99165.66
2022-08-30T01:23:40.435Z,99168.91
2022-08-30T01:26:07.896Z,99168.19
2022-08-30T01:28:35.641Z,99166.72
2022-08-30T01:31:03.129Z,99152.38
2022-08-30T01:33:30.813Z,99161.97
2022-08-30T01:36:02.621Z,99152.69
2022-08-30T01:38:44.866Z,99124.69
2022-08-30T01:41:34.776Z,99141.84
2022-08-30T01:44:06.525Z,99139.44
2022-08-30T01:46:44.078Z,99148.19
2022-08-30T01:49:14.926Z,99131.56
2022-08-30T01:51:42.396Z,99137.28
2022-08-30T01:54:09.892Z,99142.50
2022-08-30T01:56:37.527Z,99140.84
2022-08-30T01:59:05.017Z,99148.63
2022-08-30T02:01:36.955Z,99153.94
2022-08-30T02:04:04.569Z,99133.97
2022-08-30T02:06:32.193Z,99146.53
2022-08-30T02:09:00.306Z,99119.69
2022-08-30T02:11:27.512Z,99145.38
2022-08-30T02:13:54.497Z,99149.06
2022-08-30T02:16:23.819Z,99147.22
2022-08-30T02:18:52.922Z,99154.81
2022-08-30T02:21:21.143Z,99139.72
2022-08-30T02:23:48.137Z,99137.13
2022-08-30T02:26:16.583Z,99155.94
2022-08-30T02:28:49.913Z,99144.94
2022-08-30T02:31:20.739Z,99156.88
2022-08-30T02:33:51.328Z,99165.25
2022-08-30T02:36:20.848Z,99171.13
2022-08-30T02:38:49.652Z,99165.56
2022-08-30T02:41:17.836Z,99152.31
2022-08-30T02:43:44.698Z,99158.19
2022-08-30T02:46:12.417Z,99159.88
2022-08-30T02:48:39.478Z,99168.34
2022-08-30T02:51:12.100Z,99157.75
2022-08-30T02:53:41.905Z,99155.03
2022-08-30T02:56:08.906Z,99141.28
2022-08-30T02:58:37.003Z,99154.03
2022-08-30T03:01:05.936Z,99148.66
2022-08-30T03:03:33.772Z,99160.06
2022-08-30T03:06:03.362Z,99148.41
2022-08-30T03:08:30.750Z,99155.81
2022-08-30T03:10:57.727Z,99156.44
2022-08-30T03:13:25.536Z,99159.94
2022-08-30T03:15:52.494Z,99163.44
2022-08-30T03:18:20.946Z,99159.22
2022-08-30T03:20:54.466Z,99148.03
2022-08-30T03:23:23.445Z,99154.59
2022-08-30T03:25:51.092Z,99156.25
2022-08-30T03:28:18.081Z,99145.44
2022-08-30T03:30:44.892Z,99152.13
2022-08-30T03:33:12.195Z,99155.06
2022-08-30T03:35:39.070Z,99103.25
2022-08-30T03:38:06.461Z,99147.28
2022-08-30T03:40:33.727Z,99144.69
2022-08-30T03:43:01.110Z,99140.78
2022-08-30T03:45:28.589Z,99147.75
2022-08-30T03:47:55.976Z,99135.81
2022-08-30T03:50:22.904Z,99148.13
2022-08-30T03:52:50.033Z,99153.44
2022-08-30T03:55:17.352Z,99143.03
2022-08-30T03:57:44.396Z,99155.47
2022-08-30T04:00:13.781Z,99151.50
2022-08-30T04:02:42.088Z,99156.38
2022-08-30T04:05:10.305Z,99145.56
2022-08-30T04:07:37.774Z,99161.41
2022-08-30T04:10:08.905Z,99161.63
2022-08-30T04:12:37.274Z,99131.59
2022-08-30T04:15:05.545Z,99163.97
2022-08-30T04:17:32.864Z,99173.38
2022-08-30T04:19:59.806Z,99170.38
2022-08-30T04:22:26.852Z,99159.59
2022-08-30T04:24:54.182Z,99141.94
2022-08-30T04:27:21.296Z,99171.03
2022-08-30T04:29:48.646Z,99155.63
2022-08-30T04:32:17.431Z,99161.91
2022-08-30T04:34:44.613Z,99150.72
2022-08-30T04:37:12.067Z,99141.38
2022-08-30T04:39:39.758Z,99167.75
2022-08-30T04:42:07.038Z,99149.28
2022-08-30T04:44:34.250Z,99170.63
2022-08-30T04:47:01.333Z,99172.09
2022-08-30T04:49:28.716Z,99164.06
2022-08-30T04:51:55.892Z,99144.69
2022-08-30T04:54:22.909Z,99150.50
2022-08-30T04:56:50.272Z,99151.44
2022-08-30T04:59:17.536Z,99148.66
2022-08-30T05:01:45.373Z,99161.97
2022-08-30T05:04:14.669Z,99131.78
2022-08-30T05:06:42.259Z,99154.94
2022-08-30T05:09:09.682Z,99154.44
2022-08-30T05:11:38.606Z,99144.78
2022-08-30T05:14:05.782Z,99154.59
2022-08-30T05:16:33.198Z,99148.94
2022-08-30T05:19:00.567Z,99151.44
2022-08-30T05:21:28.723Z,99147.34
2022-08-30T05:23:58.054Z,99155.88
2022-08-30T05:26:27.240Z,99159.56
2022-08-30T05:28:54.530Z,99158.50
2022-08-30T05:31:28.133Z,99150.09
2022-08-30T05:33:56.197Z,99141.81
2022-08-30T05:36:25.711Z,99166.44
2022-08-30T05:38:54.501Z,99132.97
2022-08-30T05:41:23.473Z,99157.91
2022-08-30T05:43:56.272Z,99165.25
2022-08-30T05:46:24.204Z,99163.25
2022-08-30T05:48:52.193Z,99157.16
2022-08-30T05:51:22.607Z,99154.38
2022-08-30T05:53:50.799Z,99166.97
2022-08-30T05:56:22.040Z,99155.81
2022-08-30T05:58:52.253Z,99174.69
2022-08-30T06:01:28.411Z,99164.28
2022-08-30T06:04:03.020Z,99170.38
2022-08-30T06:06:32.356Z,99176.81
2022-08-30T06:08:59.360Z,99172.66
2022-08-30T06:11:27.890Z,99170.53
2022-08-30T06:13:56.341Z,99179.50
2022-08-30T06:16:26.259Z,99182.50
2022-08-30T06:18:55.683Z,99162.66
2022-08-30T06:21:25.901Z,99176.25
2022-08-30T06:23:53.650Z,99170.63
2022-08-30T06:26:20.831Z,99176.47
2022-08-30T06:28:49.339Z,99166.22
2022-08-30T06:31:19.029Z,99179.59
2022-08-30T06:33:46.781Z,99191.34
2022-08-30T06:36:20.848Z,99189.41
2022-08-30T06:38:52.009Z,99183.22
2022-08-30T06:41:22.689Z,99179.25
2022-08-30T06:43:50.063Z,99186.97
2022-08-30T06:46:32.695Z,99186.56
2022-08-30T06:49:01.084Z,99182.47
2022-08-30T06:51:31.757Z,99180.41
2022-08-30T06:54:02.402Z,99193.03
2022-08-30T06:56:31.210Z,99191.44
2022-08-30T06:58:58.688Z,99185.88
2022-08-30T07:01:28.328Z,99190.63
2022-08-30T07:03:56.181Z,99161.81
2022-08-30T07:06:25.302Z,99179.25
2022-08-30T07:08:56.083Z,99193.84
2022-08-30T07:11:34.004Z,99185.44
2022-08-30T07:14:02.346Z,99170.13
2022-08-30T07:16:30.040Z,99179.31
2022-08-30T07:18:58.782Z,99176.44
2022-08-30T07:21:35.126Z,99162.66
2022-08-30T07:24:03.390Z,99189.03
2022-08-30T07:26:37.634Z,99179.25
2022-08-30T07:29:05.522Z,99183.22
2022-08-30T07:31:34.520Z,99179.78
2022-08-30T07:34:02.267Z,99187.53
2022-08-30T07:36:32.454Z,99179.59
2022-08-30T07:39:00.940Z,99174.66
2022-08-30T07:41:31.863Z,99186.56
2022-08-30T07:43:59.019Z,99162.50
2022-08-30T07:46:27.485Z,99183.31
2022-08-30T07:48:56.043Z,99174.91
2022-08-30T07:51:27.322Z,99171.91
2022-08-30T07:53:55.809Z,99143.03
2022-08-30T07:56:23.855Z,99167.38
2022-08-30T07:58:51.518Z,99185.03
2022-08-30T08:01:19.945Z,99152.00
2022-08-30T08:03:48.073Z,99174.13
2022-08-30T08:06:21.869Z,99175.97
2022-08-30T08:08:49.751Z,99182.28
2022-08-30T08:11:24.327Z,99180.47
2022-08-30T08:13:54.563Z,99174.81
2022-08-30T08:16:23.946Z,99174.13
2022-08-30T08:18:53.158Z,99179.22
2022-08-30T08:21:22.012Z,99185.22
2022-08-30T08:23:49.742Z,99184.31
2022-08-30T08:26:16.853Z,99185.56
2022-08-30T08:28:47.638Z,99179.84
2022-08-30T08:31:18.188Z,99171.06
2022-08-30T08:33:45.387Z,99170.16
2022-08-30T08:36:13.125Z,99183.94
2022-08-30T08:38:40.221Z,99184.16
2022-08-30T08:41:34.361Z,99143.22
2022-08-30T08:44:08.821Z,99182.19
2022-08-30T08:47:11.105Z,99176.25
2022-08-30T08:49:40.837Z,99189.66
2022-08-30T08:52:33.956Z,99178.47
2022-08-30T08:55:08.498Z,99178.56
2022-08-30T08:57:45.815Z,99189.75
2022-08-30T09:00:14.908Z,99184.75
2022-08-30T09:02:58.420Z,99163.44
2022-08-30T09:05:29.809Z,99192.25
2022-08-30T09:08:17.739Z,99207.03
2022-08-30T09:11:00.509Z,99190.22
2022-08-30T09:13:28.370Z,99186.09
2022-08-30T09:16:00.428Z,99190.09
2022-08-30T09:21:57.675Z,99176.25
2022-08-30T09:24:26.166Z,99180.66
2022-08-30T09:26:53.299Z,99153.53
2022-08-30T09:29:21.057Z,99198.47
2022-08-30T09:34:44.198Z,99199.16
2022-08-30T09:37:26.799Z,99176.03
2022-08-30T09:39:54.258Z,99196.13
2022-08-30T09:42:28.896Z,99198.47
2022-08-30T09:45:10.693Z,99199.72
2022-08-30T09:47:42.175Z,99198.72
2022-08-30T09:50:24.217Z,99211.09
2022-08-30T09:52:55.393Z,99203.41
2022-08-30T09:55:49.373Z,99199.88
2022-08-30T09:58:48.927Z,99189.84
2022-08-30T10:01:22.972Z,99183.25
2022-08-30T10:04:00.347Z,99195.34
2022-08-30T10:06:34.199Z,99182.66
2022-08-30T10:09:24.766Z,99202.06
2022-08-30T10:12:20.618Z,99204.84
2022-08-30T10:15:07.958Z,99195.72
2022-08-30T10:18:04.760Z,99189.88
2022-08-30T10:21:13.516Z,99186.69
2022-08-30T10:24:04.626Z,99181.06
2022-08-30T10:26:36.870Z,99188.97
2022-08-30T10:29:09.385Z,99189.72
2022-08-30T10:31:47.366Z,99196.19
2022-08-30T10:34:22.897Z,99178.88
2022-08-30T10:37:01.245Z,99161.06
2022-08-30T10:39:34.084Z,99188.25
2022-08-30T10:42:24.162Z,99182.91
2022-08-30T10:45:13.477Z,99188.13
2022-08-30T10:47:45.016Z,99189.13
2022-08-30T10:50:34.905Z,99193.38
2022-08-30T10:53:34.095Z,99189.00
2022-08-30T10:56:05.745Z,99178.28
2022-08-30T10:58:33.331Z,99184.22
2022-08-30T11:01:06.209Z,99184.94
2022-08-30T11:04:00.695Z,99191.16
2022-08-30T11:07:09.826Z,99186.16
2022-08-30T11:09:40.370Z,99184.69
2022-08-30T11:12:32.980Z,99180.03
2022-08-30T11:15:12.763Z,99187.81
2022-08-30T11:17:56.451Z,99185.97
2022-08-30T11:20:29.489Z,99179.41
2022-08-30T11:23:15.155Z,99180.81
2022-08-30T11:26:06.751Z,99178.47
2022-08-30T11:28:36.023Z,99175.41
2022-08-30T11:31:11.430Z,99178.47
2022-08-30T11:33:46.149Z,99172.09
2022-08-30T11:36:46.155Z,99172.19
2022-08-30T11:39:44.015Z,99172.66
2022-08-30T11:42:54.451Z,99176.19
2022-08-30T11:45:24.680Z,99174.09
2022-08-30T11:48:37.702Z,99168.22
2022-08-30T11:51:58.277Z,99166.25
2022-08-30T11:55:02.202Z,99176.13
2022-08-30T11:57:55.772Z,99177.25
2022-08-30T12:00:34.174Z,99165.00
2022-08-30T12:03:06.243Z,99176.19
2022-08-30T12:05:38.471Z,99169.88
2022-08-30T12:08:10.162Z,99170.47
2022-08-30T12:10:36.972Z,99173.81
2022-08-30T12:13:04.869Z,99176.91
2022-08-30T12:15:59.345Z,99146.75
2022-08-30T12:18:37.148Z,99155.47
2022-08-30T12:21:20.228Z,99158.16
2022-08-30T12:23:58.785Z,99156.06
2022-08-30T12:26:33.291Z,99162.03
2022-08-30T12:29:08.954Z,99153.94
2022-08-30T12:31:52.220Z,99149.59
2022-08-30T12:34:27.207Z,99148.50
2022-08-30T12:37:11.340Z,99143.63
2022-08-30T12:39:43.853Z,99147.53
2022-08-30T12:42:26.830Z,99144.34
2022-08-30T12:45:00.985Z,99131.31
2022-08-30T12:47:44.501Z,99140.25
2022-08-30T12:50:16.733Z,99137.50
2022-08-30T12:52:47.419Z,99110.66
2022-08-30T12:55:25.138Z,99142.03
2022-08-30T12:58:09.496Z,99138.09
2022-08-30T13:00:40.047Z,99101.75
2022-08-30T13:03:24.369Z,99117.19
2022-08-30T13:05:53.337Z,99124.66
2022-08-30T13:08:36.537Z,99116.06
2022-08-30T13:11:09.527Z,99124.13
2022-08-30T13:13:44.397Z,99127.53
2022-08-30T13:16:17.905Z,99123.97
2022-08-30T13:18:50.005Z,99118.03
2022-08-30T13:21:30.014Z,99116.31
2022-08-30T13:24:01.873Z,99116.81
2022-08-30T13:26:32.880Z,99111.81
2022-08-30T13:29:03.242Z,99108.97
2022-08-30T13:31:32.083Z,99112.38
2022-08-30T13:33:59.999Z,99089.59
2022-08-30T13:36:37.039Z,99108.03
2022-08-30T13:39:05.917Z,99124.28
2022-08-30T13:41:34.473Z,99099.78
2022-08-30T13:44:15.811Z,99116.47
2022-08-30T13:46:53.412Z,99113.94
2022-08-30T13:49:45.769Z,99093.19
2022-08-30T13:52:27.184Z,99102.47
2022-08-30T13:54:57.684Z,99102.84
2022-08-30T14:00:19.723Z,99109.78
2022-08-30T14:02:54.709Z,99098.19
2022-08-30T14:05:47.725Z,99087.81
2022-08-30T14:11:02.042Z,99091.59
2022-08-30T14:13:31.978Z,99094.28
2022-08-30T14:18:48.964Z,99056.25
2022-08-30T14:21:16.551Z,99075.88
2022-08-30T14:23:44.189Z,99093.84
2022-08-30T14:26:17.308Z,99070.19
2022-08-30T14:28:45.004Z,99082.63
2022-08-30T14:31:13.062Z,99078.25
2022-08-30T14:33:47.552Z,99080.09
2022-08-30T14:36:15.718Z,99053.63
2022-08-30T14:38:43.905Z,99083.25
2022-08-30T14:41:12.362Z,99083.41
2022-08-30T14:43:41.269Z,99056.69
2022-08-30T14:46:09.221Z,99079.59
2022-08-30T14:48:42.622Z,99064.59
2022-08-30T14:51:15.376Z,99098.88
2022-08-30T14:53:43.477Z,99081.06
2022-08-30T14:56:13.162Z,99097.31
2022-08-30T14:58:40.149Z,99099.13
2022-08-30T15:01:10.315Z,99083.59
2022-08-30T15:03:40.984Z,99083.13
2022-08-30T15:06:10.590Z,99046.22
2022-08-30T15:08:39.272Z,99047.53
2022-08-30T15:11:12.341Z,99037.53
2022-08-30T15:13:44.727Z,99058.63
2022-08-30T15:16:21.793Z,99084.47
2022-08-30T15:18:49.532Z,99079.09
2022-08-30T15:21:29.257Z,99083.38
2022-08-30T15:23:57.876Z,99087.41
2022-08-30T15:26:25.467Z,99088.63
2022-08-30T15:28:53.258Z,99078.63
2022-08-30T15:31:22.960Z,99091.19
2022-08-30T15:33:50.804Z,99082.53
2022-08-30T15:36:18.215Z,99080.81
2022-08-30T15:38:45.308Z,99089.13
2022-08-30T15:41:13.566Z,99088.25
2022-08-30T15:43:41.392Z,99041.75
2022-08-30T15:46:29.892Z,99085.19
2022-08-30T15:49:11.676Z,99071.97
2022-08-30T15:51:41.109Z,99081.63
2022-08-30T15:54:11.893Z,99085.88
2022-08-30T15:56:39.977Z,99051.81
2022-08-30T15:59:10.073Z,99080.22
2022-08-30T16:01:38.257Z,99081.28
2022-08-30T16:04:06.213Z,99056.81
2022-08-30T16:06:37.341Z,99089.72
2022-08-30T16:09:06.840Z,99079.03
2022-08-30T16:11:34.340Z,99066.78
2022-08-30T16:14:02.096Z,99081.47
2022-08-30T16:16:31.266Z,99080.56
2022-08-30T16:18:58.880Z,99085.63
2022-08-30T16:21:28.781Z,99046.03
2022-08-30T16:23:58.348Z,99083.38
2022-08-30T16:26:26.522Z,99086.16
2022-08-30T16:28:54.073Z,99090.03
2022-08-30T16:31:23.125Z,99076.09
2022-08-30T16:33:52.747Z,99090.66
2022-08-30T16:36:21.309Z,99082.75
2022-08-30T16:38:53.578Z,99057.53
2022-08-30T16:41:24.620Z,99076.38
2022-08-30T16:43:53.440Z,99074.78
2022-08-30T16:46:27.651Z,99084.81
2022-08-30T16:48:58.522Z,99083.44
2022-08-30T16:51:27.443Z,99071.47
2022-08-30T16:53:59.630Z,99006.25
2022-08-30T16:56:32.461Z,99076.31
2022-08-30T16:59:03.361Z,99085.28
2022-08-30T17:01:34.799Z,99083.88
2022-08-30T17:04:02.742Z,99077.53
2022-08-30T17:06:30.156Z,99086.22
2022-08-30T17:08:57.367Z,99071.53
2022-08-30T17:11:24.991Z,99081.69
2022-08-30T17:13:53.119Z,99087.78
2022-08-30T17:16:25.515Z,99059.13
2022-08-30T17:19:00.817Z,99076.09
2022-08-30T17:21:29.520Z,99059.94
2022-08-30T17:24:01.808Z,99074.88
2022-08-30T17:29:01.497Z,99077.66
2022-08-30T17:31:30.887Z,99080.59
2022-08-30T17:34:04.237Z,99076.72
2022-08-30T17:36:36.833Z,99061.00
2022-08-30T17:39:10.849Z,99031.34
2022-08-30T17:41:45.385Z,99055.72
2022-08-30T17:44:19.709Z,99053.44
2022-08-30T17:46:47.284Z,99063.16
2022-08-30T17:49:15.083Z,99058.97
2022-08-30T17:51:44.351Z,99054.06
2022-08-30T17:54:21.250Z,99045.38
2022-08-30T17:56:52.097Z,99046.44
2022-08-30T17:59:20.149Z,99043.97
2022-08-30T18:01:55.252Z,99032.47
2022-08-30T18:04:25.184Z,99046.56
2022-08-30T18:06:52.982Z,99044.28
2022-08-30T18:09:24.031Z,99032.66
2022-08-30T18:11:56.434Z,99029.44
2022-08-30T18:14:24.245Z,99034.94
2022-08-30T18:16:54.362Z,99018.88
2022-08-30T18:19:27.622Z,99015.44
2022-08-30T18:21:55.529Z,99040.03
2022-08-30T18:24:23.588Z,98994.06
2022-08-30T18:26:51.770Z,99036.28
2022-08-30T18:29:29.583Z,99034.59
2022-08-30T18:32:01.073Z,98979.41
2022-08-30T18:34:29.192Z,99020.88
2022-08-30T18:36:59.334Z,99030.03
2022-08-30T18:39:26.722Z,99005.41
2022-08-30T18:41:55.628Z,99025.94
2022-08-30T18:44:28.858Z,99034.22
2022-08-30T18:47:00.264Z,99014.72
2022-08-30T18:49:29.234Z,98986.34
2022-08-30T18:52:01.307Z,99018.59
2022-08-30T18:54:29.666Z,99016.03
2022-08-30T18:56:57.092Z,98993.78
2022-08-30T18:59:35.392Z,98994.44
2022-08-30T19:02:06.915Z,98997.75
2022-08-30T19:04:35.490Z,98988.28
2022-08-30T19:07:05.302Z,98992.72
2022-08-30T19:09:33.540Z,99001.22
2022-08-30T19:12:00.992Z,99000.81
2022-08-30T19:14:29.469Z,98995.84
2022-08-30T19:17:06.723Z,98988.97
2022-08-30T19:19:35.142Z,98992.22
2022-08-30T19:22:13.140Z,99001.91
2022-08-30T19:24:40.695Z,98985.56
2022-08-30T19:27:10.628Z,98969.75
2022-08-30T19:29:40.740Z,98980.78
2022-08-30T19:32:08.299Z,98988.47
2022-08-30T19:34:37.384Z,98989.53
2022-08-30T19:37:04.904Z,98994.84
2022-08-30T19:39:31.819Z,99001.13
2022-08-30T19:41:59.105Z,99003.03
2022-08-30T19:44:27.530Z,99002.25
2022-08-30T19:46:54.564Z,98953.25
2022-08-30T19:49:30.889Z,98974.53
2022-08-30T19:52:00.817Z,98988.34
2022-08-30T19:54:29.385Z,99000.88
2022-08-30T19:56:56.541Z,98970.94
2022-08-30T19:59:23.916Z,99001.16
2022-08-30T20:01:51.018Z,98995.13
2022-08-30T20:04:18.434Z,99001.50
2022-08-30T20:06:46.193Z,98987.06
2022-08-30T20:09:13.416Z,98999.31
2022-08-30T20:11:42.779Z,98999.50
2022-08-30T20:14:13.517Z,98995.22
2022-08-30T20:16:41.836Z,99008.19
2022-08-30T20:19:11.053Z,98926.34
2022-08-30T20:21:41.600Z,99001.31
2022-08-30T20:24:09.650Z,98996.84
2022-08-30T20:26:37.632Z,98992.72
2022-08-30T20:29:06.035Z,98994.38
2022-08-30T20:31:34.413Z,99002.44
2022-08-30T20:34:03.950Z,98998.44
2022-08-30T20:36:30.981Z,99000.31
2022-08-30T20:38:58.877Z,98992.59
2022-08-30T20:41:29.107Z,99003.13
2022-08-30T20:43:58.237Z,99002.47
2022-08-30T20:46:25.406Z,98994.84
2022-08-30T20:48:53.312Z,98995.13
2022-08-30T20:51:23.104Z,98986.38
2022-08-30T20:53:50.963Z,98984.56
2022-08-30T20:56:22.328Z,98987.22
2022-08-30T20:58:50.140Z,98979.16
2022-08-30T21:01:17.743Z,98979.25
2022-08-30T21:03:47.659Z,98967.06
2022-08-30T21:06:16.742Z,98999.06
2022-08-30T21:08:44.664Z,98988.50
2022-08-30T21:11:12.340Z,98947.97
2022-08-30T21:13:39.553Z,98956.97
2022-08-30T21:16:07.943Z,98980.16
2022-08-30T21:18:36.339Z,98949.59
2022-08-30T21:21:15.710Z,98978.97
2022-08-30T21:23:42.968Z,98966.63
2022-08-30T21:26:11.105Z,98963.78
2022-08-30T21:28:40.138Z,98964.09
2022-08-30T21:31:08.546Z,98961.44
2022-08-30T21:33:39.107Z,98926.63
2022-08-30T21:36:26.224Z,98961.38
2022-08-30T21:38:54.050Z,98961.44
2022-08-30T21:41:27.020Z,98948.16
2022-08-30T21:43:59.407Z,98948.63
2022-08-30T21:46:28.115Z,98951.50
2022-08-30T21:48:56.982Z,98934.97
2022-08-30T21:51:24.856Z,98940.78
2022-08-30T21:53:51.761Z,98948.75
2022-08-30T21:56:22.150Z,98933.84
2022-08-30T21:58:50.308Z,98937.09
2022-08-30T22:01:23.963Z,98931.84
2022-08-30T22:03:56.681Z,98927.75
2022-08-30T22:06:29.298Z,98944.56
2022-08-30T22:09:03.165Z,98932.06
2022-08-30T22:11:32.777Z,98939.78
2022-08-30T22:13:59.826Z,98937.28
2022-08-30T22:16:28.493Z,98919.91
2022-08-30T22:18:55.648Z,98942.25
2022-08-30T22:21:26.791Z,98929.25
2022-08-30T22:23:53.902Z,98913.81
2022-08-30T22:26:21.750Z,98939.03
2022-08-30T22:28:48.984Z,98935.59
2022-08-30T22:31:17.691Z,98946.22
2022-08-30T22:33:47.033Z,98940.16
2022-08-30T22:36:19.982Z,98945.53
2022-08-30T22:38:48.803Z,98933.22
2022-08-30T22:41:21.192Z,98927.13
2022-08-30T22:43:54.206Z,98938.59
2022-08-30T22:46:29.565Z,98931.56
2022-08-30T22:49:04.095Z,98935.44
2022-08-30T22:51:31.296Z,98937.50
2022-08-30T22:53:58.313Z,98926.28
2022-08-30T22:56:26.126Z,98943.19
2022-08-30T22:58:54.874Z,98926.53
2022-08-30T23:01:34.746Z,98926.03
2022-08-30T23:04:02.177Z,98916.59
2022-08-30T23:06:29.783Z,98946.19
2022-08-30T23:08:56.943Z,98940.94
2022-08-30T23:11:24.723Z,98936.47
2022-08-30T23:13:52.781Z,98943.84
2022-08-30T23:16:21.073Z,98928.25
2022-08-30T23:18:48.184Z,98930.03
2022-08-30T23:21:21.099Z,98918.84
2022-08-30T23:24:08.111Z,98919.34
2022-08-30T23:26:54.377Z,98927.22
2022-08-30T23:29:40.422Z,98942.13
2022-08-30T23:32:26.340Z,98929.63
2022-08-30T23:35:12.150Z,98934.06
2022-08-30T23:37:58.039Z,98906.22
2022-08-30T23:40:44.026Z,98930.72
2022-08-30T23:43:29.821Z,98917.94
2022-08-30T23:46:19.050Z,98934.06
2022-08-30T23:49:06.733Z,98898.06
2022-08-30T23:51:53.428Z,98915.00
2022-08-30T23:54:39.132Z,98937.03
2022-08-30T23:57:25.178Z,98926.13
